sensor_id;sensor_type;location;lat;lon;timestamp;pressure;altitude;pressure_sealevel;temperature;humidity
76594;BME280;65482;50.240;14.302;2023-04-25T00:00:45;98794.38;;;8.10;63.90
76594;BME280;65482;50.240;14.302;2023-04-25T01:24:32;98780.09;;;6.85;67.15
76594;BME280;65482;50.240;14.302;2023-04-25T01:27:22;98777.94;;;6.80;66.91
76594;BME280;65482;50.240;14.302;2023-04-25T02:24:11;98756.22;;;5.90;69.59
76594;BME280;65482;50.240;14.302;2023-04-25T05:38:01;98738.56;;;10.07;60.24
76594;BME280;65482;50.240;14.302;2023-04-25T05:40:40;98743.66;;;10.69;58.00
76594;BME280;65482;50.240;14.302;2023-04-25T05:43:28;98741.78;;;11.74;55.73
76594;BME280;65482;50.240;14.302;2023-04-25T05:46:13;98748.75;;;13.31;51.00
76594;BME280;65482;50.240;14.302;2023-04-25T05:48:48;98746.91;;;13.38;50.48
76594;BME280;65482;50.240;14.302;2023-04-25T05:51:54;98746.91;;;12.68;51.89
76594;BME280;65482;50.240;14.302;2023-04-25T05:54:55;98743.91;;;12.22;52.71
76594;BME280;65482;50.240;14.302;2023-04-25T05:58:13;98741.16;;;11.57;54.72
76594;BME280;65482;50.240;14.302;2023-04-25T06:54:24;98733.44;;;13.88;49.96
76594;BME280;65482;50.240;14.302;2023-04-25T06:57:12;98734.19;;;13.62;50.49
76594;BME280;65482;50.240;14.302;2023-04-25T07:00:22;98722.44;;;13.29;50.82
76594;BME280;65482;50.240;14.302;2023-04-25T07:07:33;98722.09;;;12.69;53.58
76594;BME280;65482;50.240;14.302;2023-04-25T07:11:13;98716.56;;;12.64;54.26
76594;BME280;65482;50.240;14.302;2023-04-25T07:22:09;98720.31;;;11.84;55.04
76594;BME280;65482;50.240;14.302;2023-04-25T07:25:45;98714.16;;;11.77;55.81
76594;BME280;65482;50.240;14.302;2023-04-25T07:36:46;98718.19;;;11.58;56.72
76594;BME280;65482;50.240;14.302;2023-04-25T08:51:41;98730.97;;;17.71;38.04
76594;BME280;65482;50.240;14.302;2023-04-25T08:54:21;98733.69;;;17.34;39.31
76594;BME280;65482;50.240;14.302;2023-04-25T08:57:22;98724.56;;;17.05;38.31
76594;BME280;65482;50.240;14.302;2023-04-25T09:07:51;98731.00;;;15.51;41.52
76594;BME280;65482;50.240;14.302;2023-04-25T09:27:52;98782.66;;;13.49;47.66
76594;BME280;65482;50.240;14.302;2023-04-25T09:44:42;98841.69;;;11.70;58.25
76594;BME280;65482;50.240;14.302;2023-04-25T09:47:14;98842.34;;;11.58;59.26
76594;BME280;65482;50.240;14.302;2023-04-25T09:50:20;98851.91;;;11.29;59.76
76594;BME280;65482;50.240;14.302;2023-04-25T09:56:54;98851.91;;;10.76;61.71
76594;BME280;65482;50.240;14.302;2023-04-25T10:03:40;98859.47;;;10.56;62.69
76594;BME280;65482;50.240;14.302;2023-04-25T10:06:27;98850.16;;;10.45;63.11
76594;BME280;65482;50.240;14.302;2023-04-25T10:09:16;98854.84;;;10.35;63.48
76594;BME280;65482;50.240;14.302;2023-04-25T10:11:52;98851.22;;;10.36;64.20
76594;BME280;65482;50.240;14.302;2023-04-25T10:15:19;98844.81;;;10.53;63.08
76594;BME280;65482;50.240;14.302;2023-04-25T10:23:07;98842.59;;;10.65;63.00
76594;BME280;65482;50.240;14.302;2023-04-25T10:25:48;98837.00;;;10.83;62.49
76594;BME280;65482;50.240;14.302;2023-04-25T10:29:08;98837.75;;;10.92;62.53
76594;BME280;65482;50.240;14.302;2023-04-25T10:32:08;98841.69;;;11.11;62.50
76594;BME280;65482;50.240;14.302;2023-04-25T10:35:24;98838.78;;;11.21;61.40
76594;BME280;65482;50.240;14.302;2023-04-25T10:38:31;98839.53;;;11.29;61.36
76594;BME280;65482;50.240;14.302;2023-04-25T10:41:13;98842.25;;;11.51;60.04
76594;BME280;65482;50.240;14.302;2023-04-25T10:44:39;98837.59;;;11.83;59.85
76594;BME280;65482;50.240;14.302;2023-04-25T10:47:44;98843.81;;;12.11;59.05
76594;BME280;65482;50.240;14.302;2023-04-25T12:27:07;98839.28;;;15.04;41.69
76594;BME280;65482;50.240;14.302;2023-04-25T12:29:37;98843.75;;;15.17;41.03
76594;BME280;65482;50.240;14.302;2023-04-25T12:32:10;98841.06;;;15.30;41.14
76594;BME280;65482;50.240;14.302;2023-04-25T12:34:42;98847.00;;;15.32;40.84
76594;BME280;65482;50.240;14.302;2023-04-25T12:37:10;98844.53;;;15.31;39.58
76594;BME280;65482;50.240;14.302;2023-04-25T12:39:40;98840.44;;;15.35;38.66
76594;BME280;65482;50.240;14.302;2023-04-25T12:42:06;98846.97;;;15.39;40.47
76594;BME280;65482;50.240;14.302;2023-04-25T12:44:38;98843.50;;;15.39;40.07
76594;BME280;65482;50.240;14.302;2023-04-25T12:47:22;98852.28;;;15.39;39.06
76594;BME280;65482;50.240;14.302;2023-04-25T12:54:10;98858.66;;;14.65;39.41
76594;BME280;65482;50.240;14.302;2023-04-25T13:00:53;98860.41;;;14.31;39.61
76594;BME280;65482;50.240;14.302;2023-04-25T13:07:51;98868.06;;;13.99;40.76
76594;BME280;65482;50.240;14.302;2023-04-25T13:11:49;98863.63;;;14.13;40.66
76594;BME280;65482;50.240;14.302;2023-04-25T13:15:02;98875.84;;;14.01;41.23
76594;BME280;65482;50.240;14.302;2023-04-25T14:01:45;98911.38;;;14.13;39.63
76594;BME280;65482;50.240;14.302;2023-04-25T14:04:37;98921.56;;;14.16;39.52
76594;BME280;65482;50.240;14.302;2023-04-25T14:07:46;98920.31;;;14.05;40.67
76594;BME280;65482;50.240;14.302;2023-04-25T14:11:17;98921.81;;;14.21;40.34
76594;BME280;65482;50.240;14.302;2023-04-25T14:13:55;98927.03;;;14.01;39.95
76594;BME280;65482;50.240;14.302;2023-04-25T14:16:29;98939.84;;;13.98;40.77
76594;BME280;65482;50.240;14.302;2023-04-25T14:19:49;98932.75;;;13.70;41.59
76594;BME280;65482;50.240;14.302;2023-04-25T14:22:47;98941.53;;;13.70;41.53
76594;BME280;65482;50.240;14.302;2023-04-25T14:25:42;98941.53;;;13.42;41.00
76594;BME280;65482;50.240;14.302;2023-04-25T14:28:09;98934.97;;;13.31;41.59
76594;BME280;65482;50.240;14.302;2023-04-25T14:30:35;98942.91;;;13.10;42.48
76594;BME280;65482;50.240;14.302;2023-04-25T14:33:16;98944.47;;;13.04;41.92
76594;BME280;65482;50.240;14.302;2023-04-25T14:35:42;98944.41;;;12.98;42.87
76594;BME280;65482;50.240;14.302;2023-04-25T14:38:08;98949.28;;;12.94;43.07
76594;BME280;65482;50.240;14.302;2023-04-25T14:40:34;98948.16;;;13.03;43.32
76594;BME280;65482;50.240;14.302;2023-04-25T14:42:59;98944.88;;;13.01;43.52
76594;BME280;65482;50.240;14.302;2023-04-25T14:45:25;98951.09;;;12.93;43.20
76594;BME280;65482;50.240;14.302;2023-04-25T14:47:51;98951.72;;;12.96;44.09
76594;BME280;65482;50.240;14.302;2023-04-25T14:50:16;98949.31;;;13.01;44.12
76594;BME280;65482;50.240;14.302;2023-04-25T14:52:42;98955.50;;;12.86;44.75
76594;BME280;65482;50.240;14.302;2023-04-25T14:55:09;98955.56;;;12.93;44.61
76594;BME280;65482;50.240;14.302;2023-04-25T14:57:34;98958.41;;;12.91;44.41
76594;BME280;65482;50.240;14.302;2023-04-25T15:00:01;98959.72;;;13.02;44.82
76594;BME280;65482;50.240;14.302;2023-04-25T15:02:27;98963.44;;;13.08;44.85
76594;BME280;65482;50.240;14.302;2023-04-25T15:04:54;98964.69;;;13.12;44.33
76594;BME280;65482;50.240;14.302;2023-04-25T15:07:21;98966.34;;;13.13;43.80
76594;BME280;65482;50.240;14.302;2023-04-25T15:09:48;98967.31;;;13.05;43.83
76594;BME280;65482;50.240;14.302;2023-04-25T15:12:14;98968.88;;;13.00;44.74
76594;BME280;65482;50.240;14.302;2023-04-25T15:14:40;98975.16;;;12.99;45.35
76594;BME280;65482;50.240;14.302;2023-04-25T15:17:05;98970.91;;;12.98;45.76
76594;BME280;65482;50.240;14.302;2023-04-25T15:19:32;98978.56;;;12.92;46.24
76594;BME280;65482;50.240;14.302;2023-04-25T15:21:58;98980.25;;;12.79;45.83
76594;BME280;65482;50.240;14.302;2023-04-25T15:24:27;98981.41;;;12.69;46.55
76594;BME280;65482;50.240;14.302;2023-04-25T15:26:52;98998.50;;;12.52;47.31
76594;BME280;65482;50.240;14.302;2023-04-25T15:29:18;98997.22;;;12.33;47.02
76594;BME280;65482;50.240;14.302;2023-04-25T15:31:44;98999.00;;;12.11;47.44
76594;BME280;65482;50.240;14.302;2023-04-25T15:34:10;99002.19;;;12.06;47.89
76594;BME280;65482;50.240;14.302;2023-04-25T15:36:36;99005.09;;;11.97;47.68
76594;BME280;65482;50.240;14.302;2023-04-25T15:39:03;99010.88;;;11.77;48.89
76594;BME280;65482;50.240;14.302;2023-04-25T15:41:29;99005.75;;;11.75;50.46
76594;BME280;65482;50.240;14.302;2023-04-25T15:43:55;99011.97;;;11.68;51.95
76594;BME280;65482;50.240;14.302;2023-04-25T15:46:21;99021.63;;;11.38;52.20
76594;BME280;65482;50.240;14.302;2023-04-25T15:48:48;99028.81;;;11.29;52.56
76594;BME280;65482;50.240;14.302;2023-04-25T15:51:13;99031.06;;;11.32;51.65
76594;BME280;65482;50.240;14.302;2023-04-25T15:53:39;99026.41;;;11.19;52.08
76594;BME280;65482;50.240;14.302;2023-04-25T15:56:06;99034.06;;;11.06;52.32
76594;BME280;65482;50.240;14.302;2023-04-25T15:58:32;99037.19;;;10.86;51.98
76594;BME280;65482;50.240;14.302;2023-04-25T16:00:58;99041.53;;;11.02;51.63
76594;BME280;65482;50.240;14.302;2023-04-25T16:03:26;99034.66;;;10.93;51.46
76594;BME280;65482;50.240;14.302;2023-04-25T16:05:52;99042.78;;;10.83;50.78
76594;BME280;65482;50.240;14.302;2023-04-25T16:08:18;99035.69;;;10.84;52.41
76594;BME280;65482;50.240;14.302;2023-04-25T16:10:44;99035.22;;;10.80;51.88
76594;BME280;65482;50.240;14.302;2023-04-25T16:13:11;99035.69;;;10.84;51.73
76594;BME280;65482;50.240;14.302;2023-04-25T16:15:36;99029.72;;;10.90;52.12
76594;BME280;65482;50.240;14.302;2023-04-25T16:18:02;99039.53;;;11.04;51.31
76594;BME280;65482;50.240;14.302;2023-04-25T16:20:28;99037.06;;;11.03;51.60
76594;BME280;65482;50.240;14.302;2023-04-25T16:22:54;99033.66;;;10.94;51.60
76594;BME280;65482;50.240;14.302;2023-04-25T16:25:19;99033.19;;;10.90;51.77
76594;BME280;65482;50.240;14.302;2023-04-25T16:27:46;99035.53;;;10.85;51.74
76594;BME280;65482;50.240;14.302;2023-04-25T16:30:12;99031.25;;;10.84;51.05
76594;BME280;65482;50.240;14.302;2023-04-25T16:32:38;99038.91;;;10.71;51.71
76594;BME280;65482;50.240;14.302;2023-04-25T16:35:05;99046.81;;;10.71;51.99
76594;BME280;65482;50.240;14.302;2023-04-25T16:37:31;99050.75;;;10.75;51.19
76594;BME280;65482;50.240;14.302;2023-04-25T16:40:01;99053.47;;;10.59;51.66
76594;BME280;65482;50.240;14.302;2023-04-25T16:42:35;99047.69;;;10.63;51.50
76594;BME280;65482;50.240;14.302;2023-04-25T16:45:08;99055.22;;;10.66;51.60
76594;BME280;65482;50.240;14.302;2023-04-25T16:47:54;99054.16;;;10.52;51.85
76594;BME280;65482;50.240;14.302;2023-04-25T16:50:23;99048.44;;;10.41;53.08
76594;BME280;65482;50.240;14.302;2023-04-25T16:52:50;99049.63;;;10.22;52.42
76594;BME280;65482;50.240;14.302;2023-04-25T16:55:21;99054.75;;;10.15;52.34
76594;BME280;65482;50.240;14.302;2023-04-25T16:58:00;99048.97;;;10.11;52.43
76594;BME280;65482;50.240;14.302;2023-04-25T17:00:33;99064.47;;;9.98;52.96
76594;BME280;65482;50.240;14.302;2023-04-25T17:03:03;99061.19;;;9.96;53.08
76594;BME280;65482;50.240;14.302;2023-04-25T17:05:29;99064.84;;;9.95;53.58
76594;BME280;65482;50.240;14.302;2023-04-25T17:07:59;99072.09;;;9.93;53.50
76594;BME280;65482;50.240;14.302;2023-04-25T17:10:26;99067.28;;;9.88;53.45
76594;BME280;65482;50.240;14.302;2023-04-25T17:12:55;99077.16;;;9.94;53.74
76594;BME280;65482;50.240;14.302;2023-04-25T17:15:23;99086.56;;;9.97;53.68
76594;BME280;65482;50.240;14.302;2023-04-25T17:17:50;99091.00;;;9.96;52.83
76594;BME280;65482;50.240;14.302;2023-04-25T17:20:23;99092.97;;;9.94;53.22
76594;BME280;65482;50.240;14.302;2023-04-25T17:22:55;99096.94;;;9.90;52.97
76594;BME280;65482;50.240;14.302;2023-04-25T17:25:41;99095.47;;;9.88;53.07
76594;BME280;65482;50.240;14.302;2023-04-25T17:28:40;99096.91;;;9.99;53.13
76594;BME280;65482;50.240;14.302;2023-04-25T17:31:09;99114.38;;;10.00;53.52
76594;BME280;65482;50.240;14.302;2023-04-25T17:33:41;99109.94;;;10.00;53.03
76594;BME280;65482;50.240;14.302;2023-04-25T17:36:10;99115.03;;;10.02;53.96
76594;BME280;65482;50.240;14.302;2023-04-25T17:38:45;99119.16;;;10.04;53.34
76594;BME280;65482;50.240;14.302;2023-04-25T17:41:11;99127.06;;;10.04;53.23
76594;BME280;65482;50.240;14.302;2023-04-25T17:43:41;99137.09;;;10.01;54.20
76594;BME280;65482;50.240;14.302;2023-04-25T17:46:07;99152.41;;;9.81;54.16
76594;BME280;65482;50.240;14.302;2023-04-25T17:48:34;99159.16;;;9.67;53.67
76594;BME280;65482;50.240;14.302;2023-04-25T17:51:02;99165.41;;;9.41;54.08
76594;BME280;65482;50.240;14.302;2023-04-25T17:53:43;99176.03;;;9.23;53.63
76594;BME280;65482;50.240;14.302;2023-04-25T17:56:11;99166.91;;;9.01;54.47
76594;BME280;65482;50.240;14.302;2023-04-25T17:58:37;99165.94;;;9.02;54.23
76594;BME280;65482;50.240;14.302;2023-04-25T18:01:08;99170.03;;;9.05;54.20
76594;BME280;65482;50.240;14.302;2023-04-25T18:03:35;99175.59;;;8.93;54.11
76594;BME280;65482;50.240;14.302;2023-04-25T18:06:28;99181.69;;;8.94;54.03
76594;BME280;65482;50.240;14.302;2023-04-25T18:08:55;99178.88;;;8.87;54.03
76594;BME280;65482;50.240;14.302;2023-04-25T18:11:28;99197.44;;;8.86;53.50
76594;BME280;65482;50.240;14.302;2023-04-25T18:14:05;99187.22;;;8.83;53.99
76594;BME280;65482;50.240;14.302;2023-04-25T18:16:45;99196.41;;;8.79;52.97
76594;BME280;65482;50.240;14.302;2023-04-25T18:19:31;99189.81;;;8.74;53.54
76594;BME280;65482;50.240;14.302;2023-04-25T18:22:16;99207.91;;;8.78;53.74
76594;BME280;65482;50.240;14.302;2023-04-25T18:24:55;99195.59;;;8.78;53.81
76594;BME280;65482;50.240;14.302;2023-04-25T18:27:39;99199.66;;;8.72;53.69
76594;BME280;65482;50.240;14.302;2023-04-25T18:30:07;99200.47;;;8.73;53.74
76594;BME280;65482;50.240;14.302;2023-04-25T18:32:37;99203.88;;;8.65;54.59
76594;BME280;65482;50.240;14.302;2023-04-25T18:35:03;99208.47;;;8.63;54.63
76594;BME280;65482;50.240;14.302;2023-04-25T18:37:30;99217.19;;;8.64;54.67
76594;BME280;65482;50.240;14.302;2023-04-25T18:40:06;99218.69;;;8.66;54.69
76594;BME280;65482;50.240;14.302;2023-04-25T18:42:54;99224.09;;;8.65;54.72
76594;BME280;65482;50.240;14.302;2023-04-25T18:48:48;99241.63;;;8.56;56.14
76594;BME280;65482;50.240;14.302;2023-04-25T18:51:40;99247.50;;;8.50;56.39
76594;BME280;65482;50.240;14.302;2023-04-25T18:54:06;99250.28;;;8.48;56.57
76594;BME280;65482;50.240;14.302;2023-04-25T18:56:36;99256.41;;;8.39;57.42
76594;BME280;65482;50.240;14.302;2023-04-25T18:59:02;99257.84;;;8.33;58.58
76594;BME280;65482;50.240;14.302;2023-04-25T19:01:31;99263.88;;;8.26;58.62
76594;BME280;65482;50.240;14.302;2023-04-25T19:04:01;99265.16;;;8.22;59.57
76594;BME280;65482;50.240;14.302;2023-04-25T19:06:33;99264.09;;;8.14;59.68
76594;BME280;65482;50.240;14.302;2023-04-25T19:08:59;99266.00;;;8.04;60.01
76594;BME280;65482;50.240;14.302;2023-04-25T19:11:25;99266.41;;;8.00;59.80
76594;BME280;65482;50.240;14.302;2023-04-25T19:13:51;99259.16;;;7.93;60.04
76594;BME280;65482;50.240;14.302;2023-04-25T19:16:22;99271.38;;;7.85;59.95
76594;BME280;65482;50.240;14.302;2023-04-25T19:19:00;99270.09;;;7.71;59.51
76594;BME280;65482;50.240;14.302;2023-04-25T19:22:00;99269.78;;;7.56;60.22
76594;BME280;65482;50.240;14.302;2023-04-25T19:24:27;99267.19;;;7.46;60.09
76594;BME280;65482;50.240;14.302;2023-04-25T19:26:54;99265.97;;;7.41;60.37
76594;BME280;65482;50.240;14.302;2023-04-25T19:29:28;99266.41;;;7.36;60.72
76594;BME280;65482;50.240;14.302;2023-04-25T19:31:54;99262.59;;;7.30;60.61
76594;BME280;65482;50.240;14.302;2023-04-25T19:34:22;99262.59;;;7.30;60.60
76594;BME280;65482;50.240;14.302;2023-04-25T19:36:48;99268.78;;;7.29;61.11
76594;BME280;65482;50.240;14.302;2023-04-25T19:39:26;99275.84;;;7.29;60.92
76594;BME280;65482;50.240;14.302;2023-04-25T19:41:57;99279.59;;;7.26;61.35
76594;BME280;65482;50.240;14.302;2023-04-25T19:44:38;99283.03;;;7.27;61.05
76594;BME280;65482;50.240;14.302;2023-04-25T19:47:05;99281.78;;;7.31;60.63
76594;BME280;65482;50.240;14.302;2023-04-25T19:49:32;99284.09;;;7.34;60.79
76594;BME280;65482;50.240;14.302;2023-04-25T19:51:59;99277.88;;;7.35;59.57
76594;BME280;65482;50.240;14.302;2023-04-25T19:54:29;99276.75;;;7.37;59.32
76594;BME280;65482;50.240;14.302;2023-04-25T19:57:14;99286.44;;;7.37;59.38
76594;BME280;65482;50.240;14.302;2023-04-25T19:59:40;99279.69;;;7.34;59.12
76594;BME280;65482;50.240;14.302;2023-04-25T20:02:06;99278.56;;;7.37;59.14
76594;BME280;65482;50.240;14.302;2023-04-25T20:04:35;99282.81;;;7.38;59.04
76594;BME280;65482;50.240;14.302;2023-04-25T20:07:00;99283.00;;;7.36;59.16
76594;BME280;65482;50.240;14.302;2023-04-25T20:09:29;99285.22;;;7.31;59.08
76594;BME280;65482;50.240;14.302;2023-04-25T20:11:54;99281.09;;;7.29;59.35
76594;BME280;65482;50.240;14.302;2023-04-25T20:14:21;99271.84;;;7.25;58.97
76594;BME280;65482;50.240;14.302;2023-04-25T20:16:46;99281.13;;;7.19;59.56
76594;BME280;65482;50.240;14.302;2023-04-25T20:19:13;99282.81;;;7.10;59.37
76594;BME280;65482;50.240;14.302;2023-04-25T20:21:45;99292.09;;;7.05;59.73
76594;BME280;65482;50.240;14.302;2023-04-25T20:24:18;99281.34;;;6.88;59.98
76594;BME280;65482;50.240;14.302;2023-04-25T20:26:51;99285.81;;;6.78;60.32
76594;BME280;65482;50.240;14.302;2023-04-25T20:33:33;99294.00;;;6.46;61.14
76594;BME280;65482;50.240;14.302;2023-04-25T20:36:16;99298.56;;;6.34;60.61
76594;BME280;65482;50.240;14.302;2023-04-25T20:38:44;99299.09;;;6.28;61.06
76594;BME280;65482;50.240;14.302;2023-04-25T20:41:10;99307.53;;;6.22;61.17
76594;BME280;65482;50.240;14.302;2023-04-25T20:43:36;99303.66;;;6.16;60.78
76594;BME280;65482;50.240;14.302;2023-04-25T20:46:05;99301.72;;;6.08;61.62
76594;BME280;65482;50.240;14.302;2023-04-25T20:48:30;99311.09;;;6.01;61.53
76594;BME280;65482;50.240;14.302;2023-04-25T20:50:57;99315.47;;;5.91;61.87
76594;BME280;65482;50.240;14.302;2023-04-25T20:53:25;99311.84;;;5.82;62.10
76594;BME280;65482;50.240;14.302;2023-04-25T20:55:51;99318.59;;;5.75;62.32
76594;BME280;65482;50.240;14.302;2023-04-25T20:58:17;99306.88;;;5.69;62.27
76594;BME280;65482;50.240;14.302;2023-04-25T21:00:43;99313.72;;;5.61;62.85
76594;BME280;65482;50.240;14.302;2023-04-25T21:03:13;99313.44;;;5.54;63.21
76594;BME280;65482;50.240;14.302;2023-04-25T21:05:41;99313.16;;;5.47;62.70
76594;BME280;65482;50.240;14.302;2023-04-25T21:08:07;99313.41;;;5.44;63.21
76594;BME280;65482;50.240;14.302;2023-04-25T21:10:33;99313.13;;;5.37;63.43
76594;BME280;65482;50.240;14.302;2023-04-25T21:12:59;99318.88;;;5.31;63.83
76594;BME280;65482;50.240;14.302;2023-04-25T21:15:27;99321.75;;;5.28;64.13
76594;BME280;65482;50.240;14.302;2023-04-25T21:17:53;99322.97;;;5.24;64.04
76594;BME280;65482;50.240;14.302;2023-04-25T21:20:20;99311.34;;;5.17;63.82
76594;BME280;65482;50.240;14.302;2023-04-25T21:22:47;99319.59;;;5.12;64.58
76594;BME280;65482;50.240;14.302;2023-04-25T21:25:19;99323.31;;;5.10;65.25
76594;BME280;65482;50.240;14.302;2023-04-25T21:27:49;99310.19;;;5.00;65.19
76594;BME280;65482;50.240;14.302;2023-04-25T21:30:17;99316.63;;;4.96;65.71
76594;BME280;65482;50.240;14.302;2023-04-25T21:32:44;99312.88;;;4.89;65.75
76594;BME280;65482;50.240;14.302;2023-04-25T21:35:11;99314.47;;;4.80;66.13
76594;BME280;65482;50.240;14.302;2023-04-25T21:37:37;99323.53;;;4.76;66.30
76594;BME280;65482;50.240;14.302;2023-04-25T21:40:04;99322.66;;;4.66;67.06
76594;BME280;65482;50.240;14.302;2023-04-25T21:42:31;99320.78;;;4.56;66.74
76594;BME280;65482;50.240;14.302;2023-04-25T21:44:57;99330.41;;;4.56;67.00
76594;BME280;65482;50.240;14.302;2023-04-25T21:47:22;99336.47;;;4.56;66.96
76594;BME280;65482;50.240;14.302;2023-04-25T21:49:49;99337.16;;;4.58;66.99
76594;BME280;65482;50.240;14.302;2023-04-25T21:52:15;99337.75;;;4.62;66.78
76594;BME280;65482;50.240;14.302;2023-04-25T21:54:41;99330.59;;;4.64;66.37
76594;BME280;65482;50.240;14.302;2023-04-25T21:57:07;99334.50;;;4.70;66.51
76594;BME280;65482;50.240;14.302;2023-04-25T21:59:33;99337.41;;;4.76;65.95
76594;BME280;65482;50.240;14.302;2023-04-25T22:02:00;99336.31;;;4.79;65.67
76594;BME280;65482;50.240;14.302;2023-04-25T22:04:26;99335.25;;;4.82;65.53
76594;BME280;65482;50.240;14.302;2023-04-25T22:06:51;99338.69;;;4.82;65.26
76594;BME280;65482;50.240;14.302;2023-04-25T22:09:17;99338.41;;;5.27;63.30
76594;BME280;65482;50.240;14.302;2023-04-25T22:11:44;99339.53;;;4.62;65.25
76594;BME280;65482;50.240;14.302;2023-04-25T22:14:09;99344.34;;;4.45;65.87
76594;BME280;65482;50.240;14.302;2023-04-25T22:16:36;99349.25;;;4.38;65.82
76594;BME280;65482;50.240;14.302;2023-04-25T22:19:03;99348.06;;;4.31;65.67
76594;BME280;65482;50.240;14.302;2023-04-25T22:21:29;99353.06;;;4.34;65.45
76594;BME280;65482;50.240;14.302;2023-04-25T22:23:55;99358.56;;;4.20;65.26
76594;BME280;65482;50.240;14.302;2023-04-25T22:26:22;99359.06;;;4.67;63.54
76594;BME280;65482;50.240;14.302;2023-04-25T22:28:50;99358.06;;;4.26;65.19
76594;BME280;65482;50.240;14.302;2023-04-25T22:31:16;99359.44;;;5.56;60.99
76594;BME280;65482;50.240;14.302;2023-04-25T22:33:42;99354.31;;;5.55;60.61
76594;BME280;65482;50.240;14.302;2023-04-25T22:36:11;99372.56;;;5.66;59.72
76594;BME280;65482;50.240;14.302;2023-04-25T22:38:39;99368.78;;;4.76;62.63
76594;BME280;65482;50.240;14.302;2023-04-25T22:41:06;99372.06;;;5.42;60.62
76594;BME280;65482;50.240;14.302;2023-04-25T22:43:33;99379.78;;;5.01;61.23
76594;BME280;65482;50.240;14.302;2023-04-25T22:45:59;99380.50;;;4.29;63.12
76594;BME280;65482;50.240;14.302;2023-04-25T22:48:29;99378.28;;;5.50;59.76
76594;BME280;65482;50.240;14.302;2023-04-25T22:51:02;99376.88;;;5.87;57.89
76594;BME280;65482;50.240;14.302;2023-04-25T22:53:28;99373.06;;;5.91;58.44
76594;BME280;65482;50.240;14.302;2023-04-25T22:55:56;99380.47;;;5.86;58.98
76594;BME280;65482;50.240;14.302;2023-04-25T22:58:22;99379.88;;;5.72;59.00
76594;BME280;65482;50.240;14.302;2023-04-25T23:00:49;99380.59;;;4.38;62.63
76594;BME280;65482;50.240;14.302;2023-04-25T23:03:16;99379.19;;;3.68;65.57
76594;BME280;65482;50.240;14.302;2023-04-25T23:05:44;99383.69;;;3.44;66.86
76594;BME280;65482;50.240;14.302;2023-04-25T23:08:11;99389.13;;;3.29;66.90
76594;BME280;65482;50.240;14.302;2023-04-25T23:10:37;99380.25;;;3.21;67.21
76594;BME280;65482;50.240;14.302;2023-04-25T23:13:03;99382.00;;;3.20;67.43
76594;BME280;65482;50.240;14.302;2023-04-25T23:15:29;99385.53;;;3.08;67.77
76594;BME280;65482;50.240;14.302;2023-04-25T23:17:59;99387.31;;;3.07;67.91
76594;BME280;65482;50.240;14.302;2023-04-25T23:20:25;99382.22;;;3.06;68.13
76594;BME280;65482;50.240;14.302;2023-04-25T23:22:51;99387.56;;;3.15;68.56
76594;BME280;65482;50.240;14.302;2023-04-25T23:25:17;99385.97;;;2.90;69.06
76594;BME280;65482;50.240;14.302;2023-04-25T23:27:43;99389.88;;;2.85;69.66
76594;BME280;65482;50.240;14.302;2023-04-25T23:30:09;99386.06;;;2.77;70.43
76594;BME280;65482;50.240;14.302;2023-04-25T23:32:36;99390.91;;;2.71;70.39
76594;BME280;65482;50.240;14.302;2023-04-25T23:35:03;99388.63;;;2.66;70.59
76594;BME280;65482;50.240;14.302;2023-04-25T23:37:36;99385.03;;;2.56;71.13
76594;BME280;65482;50.240;14.302;2023-04-25T23:40:02;99392.56;;;2.72;69.86
76594;BME280;65482;50.240;14.302;2023-04-25T23:42:35;99394.13;;;3.32;69.50
76594;BME280;65482;50.240;14.302;2023-04-25T23:45:01;99397.84;;;4.30;64.58
76594;BME280;65482;50.240;14.302;2023-04-25T23:47:27;99395.66;;;3.57;65.34
76594;BME280;65482;50.240;14.302;2023-04-25T23:49:52;99398.88;;;2.56;69.21
76594;BME280;65482;50.240;14.302;2023-04-25T23:52:18;99402.09;;;2.36;70.62
76594;BME280;65482;50.240;14.302;2023-04-25T23:54:44;99411.41;;;2.27;71.08
76594;BME280;65482;50.240;14.302;2023-04-25T23:57:10;99409.97;;;2.23;71.44
76594;BME280;65482;50.240;14.302;2023-04-25T23:59:36;99413.50;;;2.22;71.48
